地図

経路データ

SID SEASON NUMBER BASIN SUBBASIN NAME ISO_TIME NATURE LAT LON WMO_WIND WMO_PRES WMO_AGENCY TRACK_TYPE DIST2LAND LANDFALL IFLAG USA_AGENCY USA_ATCF_ID USA_LAT USA_LON USA_RECORD USA_STATUS USA_WIND USA_PRES USA_SSHS USA_R34_NE USA_R34_SE USA_R34_SW USA_R34_NW USA_R50_NE USA_R50_SE USA_R50_SW USA_R50_NW USA_R64_NE USA_R64_SE USA_R64_SW USA_R64_NW USA_POCI USA_ROCI USA_RMW USA_EYE TOKYO_LAT TOKYO_LON TOKYO_GRADE TOKYO_WIND TOKYO_PRES TOKYO_R50_DIR TOKYO_R50_LONG TOKYO_R50_SHORT TOKYO_R30_DIR TOKYO_R30_LONG TOKYO_R30_SHORT TOKYO_LAND CMA_LAT CMA_LON CMA_CAT CMA_WIND CMA_PRES HKO_LAT HKO_LON HKO_CAT HKO_WIND HKO_PRES NEWDELHI_LAT NEWDELHI_LON NEWDELHI_GRADE NEWDELHI_WIND NEWDELHI_PRES NEWDELHI_CI NEWDELHI_DP NEWDELHI_POCI REUNION_LAT REUNION_LON REUNION_TYPE REUNION_WIND REUNION_PRES REUNION_TNUM REUNION_CI REUNION_RMW REUNION_R34_NE REUNION_R34_SE REUNION_R34_SW REUNION_R34_NW REUNION_R50_NE REUNION_R50_SE REUNION_R50_SW REUNION_R50_NW REUNION_R64_NE REUNION_R64_SE REUNION_R64_SW REUNION_R64_NW BOM_LAT BOM_LON BOM_TYPE BOM_WIND BOM_PRES BOM_TNUM BOM_CI BOM_RMW BOM_R34_NE BOM_R34_SE BOM_R34_SW BOM_R34_NW BOM_R50_NE BOM_R50_SE BOM_R50_SW BOM_R50_NW BOM_R64_NE BOM_R64_SE BOM_R64_SW BOM_R64_NW BOM_ROCI BOM_POCI BOM_EYE BOM_POS_METHOD BOM_PRES_METHOD NADI_LAT NADI_LON NADI_CAT NADI_WIND NADI_PRES WELLINGTON_LAT WELLINGTON_LON WELLINGTON_WIND WELLINGTON_PRES DS824_LAT DS824_LON DS824_STAGE DS824_WIND DS824_PRES TD9636_LAT TD9636_LON TD9636_STAGE TD9636_WIND TD9636_PRES TD9635_LAT TD9635_LON TD9635_WIND TD9635_PRES TD9635_ROCI NEUMANN_LAT NEUMANN_LON NEUMANN_CLASS NEUMANN_WIND NEUMANN_PRES MLC_LAT MLC_LON MLC_CLASS MLC_WIND MLC_PRES USA_GUST BOM_GUST BOM_GUST_PER REUNION_GUST REUNION_GUST_PER USA_SEAHGT USA_SEARAD_NE USA_SEARAD_SE USA_SEARAD_SW USA_SEARAD_NW STORM_SPEED STORM_DIR
1975236N12260 1975 77 EP MM JEWEL 1975-08-23 18:00:00 NR 12.0000 -100.000 main 504 483 __________O___ -1 12.0000 -100.000 1 25 5 343
1975236N12260 1975 77 EP MM JEWEL 1975-08-23 21:00:00 NR 12.2428 -100.070 main 486 459 __________P___ -1 12.2428 -100.070 1 27 6 330
1975236N12260 1975 77 EP MM JEWEL 1975-08-24 00:00:00 TS 12.5000 -100.300 30 hurdat_epa main 463 452 O________OO___ hurdat_epa EP101975 12.5000 -100.300 TD 30 -1 12.5000 -100.300 TC 30 12.5000 -100.300 1 30 10 303
1975236N12260 1975 77 EP MM JEWEL 1975-08-24 03:00:00 TS 12.7940 -100.930 main 455 448 P________PP___ EP101975 12.8003 -100.992 TD 30 -1 12.8003 -100.992 TC 30 12.7815 -100.804 1 30 15 294
1975236N12260 1975 77 EP MM JEWEL 1975-08-24 06:00:00 TS 13.0954 -101.654 30 hurdat_epa main 456 452 O________OP___ hurdat_epa EP101975 13.1000 -101.700 TD 30 -1 13.1000 -101.700 TC 30 13.0815 -101.515 1 30 16 293
1975236N12260 1975 77 EP MM JEWEL 1975-08-24 09:00:00 TS 13.3981 -102.402 main 458 451 P________PP___ EP101975 13.4000 -102.423 TD 30 -1 13.4000 -102.423 TC 30 13.3904 -102.319 1 30 15 293
1975236N12260 1975 77 EP MM JEWEL 1975-08-24 12:00:00 TS 13.7000 -103.100 30 hurdat_epa main 456 451 O________OO___ hurdat_epa EP101975 13.7000 -103.100 TD 30 -1 13.7000 -103.100 TC 30 13.7000 -103.100 1 30 14 296
1975236N12260 1975 77 EP MM JEWEL 1975-08-24 15:00:00 TS 14.0046 -103.684 main 461 444 P________PP___ EP101975 13.9997 -103.673 TD 30 -1 13.9997 -103.673 TC 30 14.0239 -103.730 1 30 13 299
1975236N12260 1975 77 EP MM JEWEL 1975-08-24 18:00:00 TS 14.3089 -104.222 30 hurdat_epa main 447 433 O________OP___ hurdat_epa EP101975 14.3000 -104.200 TD 30 -1 14.3000 -104.200 TC 30 14.3446 -104.312 1 30 12 300
1975236N12260 1975 77 EP MM JEWEL 1975-08-24 21:00:00 TS 14.6206 -104.792 main 436 421 P________PP___ EP101975 14.6151 -104.780 TD 30 -1 14.6151 -104.780 TC 30 14.6429 -104.839 1 30 12 300
1975236N12260 1975 77 EP MM JEWEL 1975-08-25 00:00:00 TS 14.9000 -105.300 30 hurdat_epa main 426 421 O________OO___ hurdat_epa EP101975 14.9000 -105.300 TD 30 -1 14.9000 -105.300 TC 30 14.9000 -105.300 1 30 10 300
1975236N12260 1975 77 EP MM JEWEL 1975-08-25 03:00:00 TS 15.1231 -105.689 main 427 418 P________PP___ EP101975 15.1298 -105.688 TD 30 -1 15.1298 -105.688 TC 30 15.0965 -105.694 1 30 8 300
1975236N12260 1975 77 EP MM JEWEL 1975-08-25 06:00:00 TS 15.2903 -106.005 30 hurdat_epa main 428 428 O________OP___ hurdat_epa EP101975 15.3000 -106.000 TD 30 -1 15.3000 -106.000 TC 30 15.2516 -106.026 1 30 7 295
1975236N12260 1975 77 EP MM JEWEL 1975-08-25 09:00:00 TS 15.4021 -106.310 main 440 440 P________PP___ EP101975 15.4074 -106.308 TD 30 -1 15.4074 -106.308 TC 30 15.3810 -106.319 1 30 6 290
1975236N12260 1975 77 EP MM JEWEL 1975-08-25 12:00:00 TS 15.5000 -106.600 30 hurdat_epa main 454 450 O________OO___ hurdat_epa EP101975 15.5000 -106.600 TD 30 -1 15.5000 -106.600 TC 30 15.5000 -106.600 1 30 6 293
1975236N12260 1975 77 EP MM JEWEL 1975-08-25 15:00:00 TS 15.6480 -106.899 main 460 450 P________PP___ EP101975 15.6500 -106.900 TD 35 0 15.6500 -106.900 TC 35 15.6400 -106.895 1 33 6 297
1975236N12260 1975 77 EP MM JEWEL 1975-08-25 18:00:00 TS 15.7944 -107.197 40 hurdat_epa main 457 454 O________OP___ hurdat_epa EP101975 15.8000 -107.200 TS 40 0 15.8000 -107.200 TC 40 15.7721 -107.185 1 37 6 294
1975236N12260 1975 77 EP MM JEWEL 1975-08-25 21:00:00 TS 15.9046 -107.491 main 467 465 P________PP___ EP101975 15.9074 -107.493 TS 42 0 15.9074 -107.493 TC 42 15.8931 -107.483 1 41 6 290
1975236N12260 1975 77 EP MM JEWEL 1975-08-26 00:00:00 TS 16.0000 -107.800 45 hurdat_epa main 478 478 O________OO___ hurdat_epa EP101975 16.0000 -107.800 TS 45 0 16.0000 -107.800 TC 45 16.0000 -107.800 2 45 7 288
1975236N12260 1975 77 EP MM JEWEL 1975-08-26 03:00:00 TS 16.1055 -108.144 main 492 492 P________PP___ EP101975 16.1074 -108.135 TS 45 0 16.1074 -108.135 TC 45 16.0977 -108.178 2 45 7 286
1975236N12260 1975 77 EP MM JEWEL 1975-08-26 06:00:00 TS 16.1961 -108.515 45 hurdat_epa main 515 515 O________OP___ hurdat_epa EP101975 16.2000 -108.500 TS 45 0 16.2000 -108.500 TC 45 16.1804 -108.572 2 45 8 282
1975236N12260 1975 77 EP MM JEWEL 1975-08-26 09:00:00 TS 16.2616 -108.923 main 538 538 P________PP___ EP101975 16.2651 -108.915 TS 45 0 16.2651 -108.915 TC 45 16.2478 -108.956 2 45 8 278
1975236N12260 1975 77 EP MM JEWEL 1975-08-26 12:00:00 TS 16.3000 -109.300 45 hurdat_epa main 568 568 O________OO___ hurdat_epa EP101975 16.3000 -109.300 TS 45 0 16.3000 -109.300 TC 45 16.3000 -109.300 2 45 6 274
1975236N12260 1975 77 EP MM JEWEL 1975-08-26 15:00:00 TS 16.3077 -109.579 main 592 592 P________PP___ EP101975 16.2999 -109.580 TS 47 0 16.2999 -109.580 TC 47 16.3390 -109.572 2 47 5 272
1975236N12260 1975 77 EP MM JEWEL 1975-08-26 18:00:00 TS 16.3129 -109.801 50 hurdat_epa main 609 609 O________OP___ hurdat_epa EP101975 16.3000 -109.800 TS 50 0 16.3000 -109.800 TC 50 16.3646 -109.803 2 50 4 276
1975236N12260 1975 77 EP MM JEWEL 1975-08-26 21:00:00 TS 16.3505 -110.007 main 619 619 P________PP___ EP101975 16.3425 -110.007 TS 52 0 16.3425 -110.007 TC 52 16.3829 -110.007 2 52 4 283
1975236N12260 1975 77 EP MM JEWEL 1975-08-27 00:00:00 TS 16.4000 -110.200 55 hurdat_epa main 636 636 O________OO___ hurdat_epa EP101975 16.4000 -110.200 TS 55 0 16.4000 -110.200 TC 55 16.4000 -110.200 2 55 4 285
1975236N12260 1975 77 EP MM JEWEL 1975-08-27 03:00:00 TS 16.4526 -110.398 main 647 647 P________PP___ EP101975 16.4575 -110.400 TS 55 0 16.4575 -110.400 TC 55 16.4329 -110.391 2 57 4 284
1975236N12260 1975 77 EP MM JEWEL 1975-08-27 06:00:00 TS 16.4929 -110.595 55 hurdat_epa main 664 664 O________OP___ hurdat_epa EP101975 16.5000 -110.600 TS 55 0 16.5000 -110.600 TC 55 16.4647 -110.577 2 60 4 278
1975236N12260 1975 77 EP MM JEWEL 1975-08-27 09:00:00 TS 16.5038 -110.783 main 682 682 P________PP___ EP101975 16.5074 -110.785 TS 60 0 16.5074 -110.785 TC 60 16.4891 -110.775 2 62 4 271
1975236N12260 1975 77 EP MM JEWEL 1975-08-27 12:00:00 TS 16.5000 -111.000 65 hurdat_epa main 700 700 O________OO___ hurdat_epa EP101975 16.5000 -111.000 HU 65 1 16.5000 -111.000 TC 65 16.5000 -111.000 4 65 5 270
1975236N12260 1975 77 EP MM JEWEL 1975-08-27 15:00:00 TS 16.5038 -111.277 main 726 726 P________PP___ EP101975 16.5075 -111.285 HU 60 0 16.5075 -111.285 TC 60 16.4891 -111.243 4 62 6 269
1975236N12260 1975 77 EP MM JEWEL 1975-08-27 18:00:00 TS 16.4929 -111.584 55 hurdat_epa main 735 735 O________OP___ hurdat_epa EP101975 16.5000 -111.600 TS 55 0 16.5000 -111.600 TC 55 16.4645 -111.518 4 60 6 265
1975236N12260 1975 77 EP MM JEWEL 1975-08-27 21:00:00 TS 16.4524 -111.875 main 742 742 P________PP___ EP101975 16.4574 -111.885 TS 55 0 16.4574 -111.885 TC 55 16.4327 -111.834 4 57 6 261
1975236N12260 1975 77 EP MM JEWEL 1975-08-28 00:00:00 TS 16.4000 -112.200 55 hurdat_epa main 762 762 O________OO___ hurdat_epa EP101975 16.4000 -112.200 TS 55 0 16.4000 -112.200 TC 55 16.4000 -112.200 2 55 7 261
1975236N12260 1975 77 EP MM JEWEL 1975-08-28 03:00:00 TS 16.3472 -112.571 main 786 786 P________PP___ EP101975 16.3424 -112.563 TS 55 0 16.3424 -112.563 TC 55 16.3667 -112.605 2 55 8 263
1975236N12260 1975 77 EP MM JEWEL 1975-08-28 06:00:00 TS 16.3069 -113.012 55 hurdat_epa main 802 802 O________OP___ hurdat_epa EP101975 16.3000 -113.000 TS 55 0 16.3000 -113.000 TC 55 16.3346 -113.060 2 55 9 267
1975236N12260 1975 77 EP MM JEWEL 1975-08-28 09:00:00 TS 16.2960 -113.528 main 824 824 P________PP___ EP101975 16.2925 -113.520 TS 55 0 16.2925 -113.520 TC 55 16.3103 -113.561 2 55 10 270
1975236N12260 1975 77 EP MM JEWEL 1975-08-28 12:00:00 TS 16.3000 -114.100 55 hurdat_epa main 853 853 O________OO___ hurdat_epa EP101975 16.3000 -114.100 TS 55 0 16.3000 -114.100 TC 55 16.3000 -114.100 2 55 11 270
1975236N12260 1975 77 EP MM JEWEL 1975-08-28 15:00:00 TS 16.2920 -114.686 main 887 887 P________PP___ EP101975 16.2924 -114.693 TS 55 0 16.2924 -114.693 TC 55 16.2902 -114.660 2 53 11 270
1975236N12260 1975 77 EP MM JEWEL 1975-08-28 18:00:00 TS 16.2995 -115.291 55 hurdat_epa main 923 923 O________OP___ hurdat_epa EP101975 16.3000 -115.300 TS 55 0 16.3000 -115.300 TC 55 16.2973 -115.256 2 52 12 272
1975236N12260 1975 77 EP MM JEWEL 1975-08-28 21:00:00 TS 16.3340 -115.889 main 962 962 P________PP___ EP101975 16.3348 -115.893 TS 55 0 16.3348 -115.893 TC 55 16.3307 -115.873 2 51 12 275
1975236N12260 1975 77 EP MM JEWEL 1975-08-29 00:00:00 TS 16.4000 -116.500 55 hurdat_epa main 995 995 O________OO___ hurdat_epa EP101975 16.4000 -116.500 TS 55 0 16.4000 -116.500 TC 55 16.4000 -116.500 2 50 12 277
1975236N12260 1975 77 EP MM JEWEL 1975-08-29 03:00:00 TS 16.4790 -117.145 main 1031 1031 P________PP___ EP101975 16.4774 -117.150 TS 55 0 16.4774 -117.150 TC 55 16.4854 -117.126 2 48 13 279
1975236N12260 1975 77 EP MM JEWEL 1975-08-29 06:00:00 TS 16.6019 -117.792 55 hurdat_epa main 1077 1077 O________OP___ hurdat_epa EP101975 16.6000 -117.800 TS 55 0 16.6000 -117.800 TC 55 16.6097 -117.758 2 47 12 283
1975236N12260 1975 77 EP MM JEWEL 1975-08-29 09:00:00 TS 16.7657 -118.409 main 1099 1099 P________PP___ EP101975 16.7623 -118.415 TS 50 0 16.7623 -118.415 TC 50 16.7791 -118.386 2 46 12 289
1975236N12260 1975 77 EP MM JEWEL 1975-08-29 12:00:00 TS 17.0000 -119.000 45 hurdat_epa main 1119 1117 O________OO___ hurdat_epa EP101975 17.0000 -119.000 TS 45 0 17.0000 -119.000 TC 45 17.0000 -119.000 2 45 12 297
1975236N12260 1975 77 EP MM JEWEL 1975-08-29 15:00:00 TS 17.3282 -119.555 main 1135 1127 P________PP___ EP101975 17.3347 -119.550 TS 45 0 17.3347 -119.550 TC 45 17.3021 -119.573 2 43 13 303
1975236N12260 1975 77 EP MM JEWEL 1975-08-29 18:00:00 TS 17.6897 -120.107 45 hurdat_epa main 1139 1139 O________OP___ hurdat_epa EP101975 17.7000 -120.100 TS 45 0 17.7000 -120.100 TC 45 17.6485 -120.134 2 42 13 303
1975236N12260 1975 77 EP MM JEWEL 1975-08-29 21:00:00 TS 18.0170 -120.689 main 1162 1162 P________PP___ EP101975 18.0223 -120.685 TS 42 0 18.0223 -120.685 TC 42 17.9958 -120.704 2 41 13 298
1975236N12260 1975 77 EP MM JEWEL 1975-08-30 00:00:00 TS 18.3000 -121.300 40 hurdat_epa main 1188 1188 O________OO___ hurdat_epa EP101975 18.3000 -121.300 TS 40 0 18.3000 -121.300 TC 40 18.3000 -121.300 2 40 13 293
1975236N12260 1975 77 EP MM JEWEL 1975-08-30 03:00:00 TS 18.5280 -121.941 main 1224 1224 P________PP___ EP101975 18.5298 -121.935 TS 40 0 18.5298 -121.935 TC 40 18.5208 -121.967 2 40 13 288
1975236N12260 1975 77 EP MM JEWEL 1975-08-30 06:00:00 TS 18.6981 -122.612 40 hurdat_epa main 1266 1266 O________OP___ hurdat_epa EP101975 18.7000 -122.600 TS 40 0 18.7000 -122.600 TC 40 18.6904 -122.658 2 40 13 283
1975236N12260 1975 77 EP MM JEWEL 1975-08-30 09:00:00 TS 18.8210 -123.321 main 1305 1305 P________PP___ EP101975 18.8226 -123.315 TS 40 0 18.8226 -123.315 TC 40 18.8146 -123.345 2 40 13 279
1975236N12260 1975 77 EP MM JEWEL 1975-08-30 12:00:00 TS 18.9000 -124.000 40 hurdat_epa main 1344 1344 O________OO___ hurdat_epa EP101975 18.9000 -124.000 TS 40 0 18.9000 -124.000 TC 40 18.9000 -124.000 2 40 12 277
1975236N12260 1975 77 EP MM JEWEL 1975-08-30 15:00:00 TS 18.9644 -124.570 main 1379 1379 P________PP___ EP101975 18.9646 -124.573 TS 37 0 18.9646 -124.573 TC 37 18.9634 -124.562 2 37 10 275
1975236N12260 1975 77 EP MM JEWEL 1975-08-30 18:00:00 TS 18.9986 -125.099 35 hurdat_epa main 1415 1415 O________OP___ hurdat_epa EP101975 19.0000 -125.100 TS 35 0 19.0000 -125.100 TC 35 18.9928 -125.093 2 35 10 272
1975236N12260 1975 77 EP MM JEWEL 1975-08-30 21:00:00 TS 19.0059 -125.628 main 1453 1453 P________PP___ EP101975 19.0071 -125.628 TS 32 -1 19.0071 -125.628 TC 32 19.0008 -125.628 2 32 10 270
1975236N12260 1975 77 EP MM JEWEL 1975-08-31 00:00:00 TS 19.0000 -126.200 30 hurdat_epa main 1499 1499 O________OO___ hurdat_epa EP101975 19.0000 -126.200 TD 30 -1 19.0000 -126.200 TC 30 19.0000 -126.200 1 30 12 270
1975236N12260 1975 77 EP MM JEWEL 1975-08-31 03:00:00 TS 18.9999 -126.869 main 1553 1553 P________PP___ EP101975 19.0000 -126.878 TD 30 -1 19.0000 -126.878 TC 30 18.9999 -126.836 1 28 13 270
1975236N12260 1975 77 EP MM JEWEL 1975-08-31 06:00:00 TS 19.0002 -127.585 30 hurdat_epa main 1610 1610 O________OP___ hurdat_epa EP101975 19.0000 -127.600 TD 30 -1 19.0000 -127.600 TC 30 19.0009 -127.527 1 27 14 270
1975236N12260 1975 77 EP MM JEWEL 1975-08-31 09:00:00 TS 19.0006 -128.297 main 1667 1667 P________PP___ EP101975 19.0004 -128.307 TD 27 -1 19.0004 -128.307 TC 27 19.0014 -128.255 1 26 13 270
1975236N12260 1975 77 EP MM JEWEL 1975-08-31 12:00:00 TS 19.0000 -129.000 25 hurdat_epa main 1725 O________OO___ hurdat_epa EP101975 19.0000 -129.000 TD 25 -1 19.0000 -129.000 TC 25 19.0000 -129.000 1 25 13 270

IBTrACS Databaseについて

本データベースは、米国NOAAが公開する1842年以降の世界の熱帯低気圧のベストトラックデータアーカイブInternational Best Track Archive for Climate Stewardship (IBTrACS)を、ウェブで閲覧しやすい形式に変換したものです。

最終更新日:2021-12-01